createdAt,value
2022-10-15T00:02:50.454Z,14.20
2022-10-15T00:07:52.749Z,14.20
2022-10-15T00:12:54.488Z,14.20
2022-10-15T00:17:56.502Z,14.20
2022-10-15T00:22:58.239Z,14.10
2022-10-15T00:28:00.286Z,14.10
2022-10-15T00:33:01.999Z,14.10
2022-10-15T00:38:03.726Z,14.10
2022-10-15T00:43:11.139Z,14.10
2022-10-15T00:48:12.885Z,14.10
2022-10-15T00:53:14.632Z,14.10
2022-10-15T00:58:19.896Z,14.10
2022-10-15T01:03:22.260Z,14.10
2022-10-15T01:08:24.145Z,14.00
2022-10-15T01:13:52.830Z,14.10
2022-10-15T01:18:58.556Z,14.10
2022-10-15T01:24:22.584Z,14.10
2022-10-15T01:29:47.118Z,14.10
2022-10-15T01:35:05.415Z,14.10
2022-10-15T01:40:14.487Z,14.10
2022-10-15T01:45:22.886Z,14.10
2022-10-15T01:50:27.757Z,14.10
2022-10-15T01:55:31.714Z,14.10
2022-10-15T02:00:33.532Z,14.10
2022-10-15T02:05:44.943Z,14.00
2022-10-15T02:11:16.432Z,14.10
2022-10-15T02:16:30.152Z,14.20
2022-10-15T02:21:44.952Z,14.10
2022-10-15T02:26:48.069Z,14.10
2022-10-15T02:31:51.161Z,14.00
2022-10-15T02:36:54.950Z,14.00
2022-10-15T02:41:57.694Z,14.00
2022-10-15T02:47:00.273Z,13.90
2022-10-15T02:52:02.022Z,13.80
2022-10-15T02:57:04.105Z,13.80
2022-10-15T03:02:05.840Z,13.80
2022-10-15T03:07:07.751Z,13.80
2022-10-15T03:12:09.561Z,13.90
2022-10-15T03:17:11.305Z,13.90
2022-10-15T03:22:13.041Z,13.90
2022-10-15T03:27:14.746Z,14.00
2022-10-15T03:32:16.883Z,14.00
2022-10-15T03:37:18.820Z,14.10
2022-10-15T03:42:20.738Z,14.10
2022-10-15T03:47:22.700Z,14.10
2022-10-15T03:52:24.833Z,14.10
2022-10-15T03:57:26.833Z,14.00
2022-10-15T04:02:31.010Z,14.10
2022-10-15T04:07:32.890Z,14.10
2022-10-15T04:12:34.793Z,14.00
2022-10-15T04:17:36.536Z,14.10
2022-10-15T04:22:38.424Z,14.00
2022-10-15T04:27:40.151Z,14.00
2022-10-15T04:32:41.888Z,14.00
2022-10-15T04:37:43.619Z,13.90
2022-10-15T04:42:46.035Z,13.70
2022-10-15T04:47:47.941Z,13.70
2022-10-15T04:52:49.739Z,13.60
2022-10-15T04:57:51.448Z,13.50
2022-10-15T05:02:53.256Z,13.50
2022-10-15T05:07:54.964Z,13.40
2022-10-15T05:12:57.065Z,13.40
2022-10-15T05:17:58.884Z,13.40
2022-10-15T05:23:00.745Z,13.50
2022-10-15T05:28:02.593Z,13.50
2022-10-15T05:33:04.311Z,13.50
2022-10-15T05:38:06.327Z,13.60
2022-10-15T05:43:08.042Z,13.50
2022-10-15T05:48:09.772Z,13.50
2022-10-15T05:53:11.505Z,13.50
2022-10-15T05:58:13.231Z,13.60
2022-10-15T06:03:14.991Z,13.50
2022-10-15T06:08:17.241Z,13.60
2022-10-15T06:13:19.251Z,13.60
2022-10-15T06:18:21.129Z,13.60
2022-10-15T06:23:24.367Z,13.70
2022-10-15T06:28:26.518Z,13.70
2022-10-15T06:33:29.106Z,13.70
2022-10-15T06:38:31.064Z,13.70
2022-10-15T06:43:35.149Z,13.80
2022-10-15T06:48:37.613Z,13.80
2022-10-15T06:53:42.186Z,13.90
2022-10-15T06:58:43.930Z,13.90
2022-10-15T07:03:48.479Z,14.00
2022-10-15T07:08:50.227Z,14.00
2022-10-15T07:13:52.114Z,14.10
2022-10-15T07:18:53.879Z,14.20
2022-10-15T07:23:55.760Z,14.20
2022-10-15T07:28:58.237Z,14.20
2022-10-15T07:33:59.998Z,14.30
2022-10-15T07:39:01.702Z,14.40
2022-10-15T07:44:03.860Z,14.50
2022-10-15T07:49:05.574Z,14.50
2022-10-15T07:54:07.318Z,14.50
2022-10-15T07:59:09.503Z,14.60
2022-10-15T08:04:11.245Z,14.70
2022-10-15T08:09:13.245Z,14.80
2022-10-15T08:14:15.129Z,14.80
2022-10-15T08:19:17.800Z,14.90
2022-10-15T08:24:19.772Z,15.00
2022-10-15T08:29:21.544Z,15.00
2022-10-15T08:34:23.555Z,15.00
2022-10-15T08:39:25.305Z,15.10
2022-10-15T08:44:32.013Z,15.30
2022-10-15T08:49:45.812Z,15.50
2022-10-15T08:54:47.928Z,15.70
2022-10-15T09:00:04.688Z,15.70
2022-10-15T09:05:15.473Z,15.70
2022-10-15T09:10:39.520Z,15.80
2022-10-15T09:16:13.291Z,15.90
2022-10-15T09:21:15.541Z,16.00
2022-10-15T09:26:17.386Z,16.00
2022-10-15T09:31:23.764Z,16.10
2022-10-15T09:37:08.947Z,16.20
2022-10-15T09:42:30.866Z,16.20
2022-10-15T09:47:34.868Z,16.20
2022-10-15T09:52:59.497Z,16.10
2022-10-15T09:58:16.541Z,16.10
2022-10-15T10:03:18.264Z,16.20
2022-10-15T10:08:24.654Z,16.30
2022-10-15T10:13:30.724Z,16.30
2022-10-15T10:18:32.654Z,16.40
2022-10-15T10:23:39.436Z,16.50
2022-10-15T10:28:56.617Z,16.60
2022-10-15T10:34:03.284Z,16.70
2022-10-15T10:39:21.427Z,16.80
2022-10-15T10:44:34.070Z,17.10
2022-10-15T10:49:39.103Z,17.20
2022-10-15T10:59:51.893Z,17.40
2022-10-15T11:04:53.839Z,17.60
2022-10-15T11:10:09.411Z,17.80
2022-10-15T11:15:23.004Z,17.80
2022-10-15T11:21:05.995Z,17.90
2022-10-15T11:26:37.139Z,17.80
2022-10-15T11:32:02.595Z,17.70
2022-10-15T11:37:27.153Z,17.60
2022-10-15T11:42:50.692Z,17.60
2022-10-15T11:48:17.061Z,17.60
2022-10-15T11:53:50.940Z,17.70
2022-10-15T11:59:15.574Z,17.70
2022-10-15T12:04:44.893Z,17.80
2022-10-15T12:09:52.275Z,17.80
2022-10-15T12:15:04.444Z,17.90
2022-10-15T12:20:14.330Z,17.90
2022-10-15T12:25:34.250Z,18.10
2022-10-15T12:30:37.744Z,18.10
2022-10-15T12:35:40.071Z,18.00
2022-10-15T12:40:41.852Z,17.80
2022-10-15T12:45:56.254Z,17.80
2022-10-15T12:51:16.745Z,17.90
2022-10-15T12:56:18.451Z,17.70
2022-10-15T13:01:20.542Z,17.30
2022-10-15T13:06:22.536Z,17.10
2022-10-15T13:11:29.081Z,17.50
2022-10-15T13:16:31.371Z,17.70
2022-10-15T13:21:53.893Z,17.90
2022-10-15T13:26:57.249Z,17.80
2022-10-15T13:32:00.706Z,17.90
2022-10-15T13:37:04.214Z,18.60
2022-10-15T13:42:21.991Z,18.70
2022-10-15T13:47:31.154Z,19.10
2022-10-15T13:52:32.901Z,19.10
2022-10-15T13:57:34.661Z,19.40
2022-10-15T14:02:36.467Z,19.50
2022-10-15T14:07:38.248Z,19.10
2022-10-15T14:12:40.036Z,19.00
2022-10-15T14:17:41.789Z,19.00
2022-10-15T14:22:48.271Z,18.60
2022-10-15T14:27:50.045Z,18.50
2022-10-15T14:32:52.606Z,19.20
2022-10-15T14:38:19.880Z,18.90
2022-10-15T14:43:21.776Z,18.80
2022-10-15T14:48:38.405Z,19.30
2022-10-15T14:53:45.760Z,20.50
2022-10-15T14:58:56.535Z,20.10
2022-10-15T15:03:58.390Z,20.80
2022-10-15T15:09:00.443Z,20.30
2022-10-15T15:14:03.666Z,21.00
2022-10-15T15:19:08.975Z,22.10
2022-10-15T15:24:11.545Z,22.00
2022-10-15T15:29:16.174Z,21.70
2022-10-15T15:34:17.993Z,21.60
2022-10-15T15:39:19.743Z,22.50
2022-10-15T15:44:21.517Z,21.60
2022-10-15T15:49:23.608Z,21.00
2022-10-15T15:54:25.346Z,20.10
2022-10-15T15:59:27.230Z,19.40
2022-10-15T16:04:28.958Z,19.00
2022-10-15T16:09:30.747Z,18.80
2022-10-15T16:14:32.624Z,18.50
2022-10-15T16:19:34.497Z,18.50
2022-10-15T16:24:36.250Z,18.40
2022-10-15T16:29:38.042Z,18.30
2022-10-15T16:34:39.805Z,18.10
2022-10-15T16:39:41.659Z,18.00
2022-10-15T16:44:44.268Z,17.60
2022-10-15T16:49:45.990Z,17.50
2022-10-15T16:54:47.853Z,17.40
2022-10-15T16:59:49.600Z,17.30
2022-10-15T17:04:51.381Z,17.20
2022-10-15T17:09:53.129Z,17.10
2022-10-15T17:14:54.882Z,17.10
2022-10-15T17:19:56.617Z,16.90
2022-10-15T17:24:58.376Z,16.90
2022-10-15T17:30:00.198Z,16.80
2022-10-15T17:35:04.138Z,16.70
2022-10-15T17:40:06.719Z,16.60
2022-10-15T17:45:11.124Z,16.50
2022-10-15T17:50:14.480Z,16.50
2022-10-15T17:55:17.160Z,16.40
2022-10-15T18:00:19.083Z,16.30
2022-10-15T18:05:20.845Z,16.20
2022-10-15T18:10:22.615Z,16.30
2022-10-15T18:15:24.364Z,16.20
2022-10-15T18:20:26.231Z,16.20
2022-10-15T18:25:28.024Z,16.10
2022-10-15T18:30:29.774Z,16.00
2022-10-15T18:35:35.630Z,16.00
2022-10-15T18:40:41.051Z,15.90
2022-10-15T18:45:44.745Z,15.80
2022-10-15T18:55:48.749Z,15.60
2022-10-15T19:00:50.491Z,15.50
2022-10-15T19:05:52.317Z,15.40
2022-10-15T19:10:54.324Z,15.20
2022-10-15T19:15:56.054Z,15.20
2022-10-15T19:20:57.950Z,15.20
2022-10-15T19:26:00.337Z,15.20
2022-10-15T19:31:05.607Z,15.00
2022-10-15T19:36:07.460Z,15.00
2022-10-15T19:41:09.217Z,14.90
2022-10-15T19:46:11.748Z,15.00
2022-10-15T19:51:13.997Z,14.90
2022-10-15T19:56:15.788Z,14.80
2022-10-15T20:01:17.599Z,14.80
2022-10-15T20:06:20.170Z,14.80
2022-10-15T20:11:24.177Z,14.70
2022-10-15T20:16:27.577Z,14.70
2022-10-15T20:21:33.680Z,14.70
2022-10-15T20:26:35.478Z,14.50
2022-10-15T20:31:41.730Z,14.50
2022-10-15T20:36:43.432Z,14.50
2022-10-15T20:41:45.228Z,14.60
2022-10-15T20:46:58.690Z,14.50
2022-10-15T20:52:01.469Z,14.60
2022-10-15T20:57:03.888Z,14.60
2022-10-15T21:02:05.745Z,14.50
2022-10-15T21:07:07.513Z,14.50
2022-10-15T21:12:10.298Z,14.50
2022-10-15T21:17:12.892Z,14.60
2022-10-15T21:22:14.656Z,14.50
2022-10-15T21:27:16.570Z,14.50
2022-10-15T21:32:18.453Z,14.60
2022-10-15T21:37:20.197Z,14.50
2022-10-15T21:42:21.907Z,14.50
2022-10-15T21:47:26.162Z,14.50
2022-10-15T21:52:28.209Z,14.50
2022-10-15T21:57:30.229Z,14.60
2022-10-15T22:02:32.068Z,14.70
2022-10-15T22:07:37.171Z,14.60
2022-10-15T22:12:41.357Z,14.70
2022-10-15T22:17:43.076Z,14.60
2022-10-15T22:22:44.822Z,14.70
2022-10-15T22:27:46.862Z,14.60
2022-10-15T22:32:48.548Z,14.60
2022-10-15T22:37:55.235Z,14.50
2022-10-15T22:42:57.215Z,14.50
2022-10-15T22:47:59.060Z,14.50
2022-10-15T22:53:00.779Z,14.50
2022-10-15T22:58:03.246Z,14.50
2022-10-15T23:03:04.997Z,14.50
2022-10-15T23:08:06.737Z,14.50
2022-10-15T23:13:08.500Z,14.50
2022-10-15T23:18:10.616Z,14.50
2022-10-15T23:23:12.490Z,14.50
2022-10-15T23:28:14.194Z,14.50
2022-10-15T23:33:16.003Z,14.30
2022-10-15T23:38:17.742Z,14.40
2022-10-15T23:43:19.638Z,14.40
2022-10-15T23:48:21.631Z,14.50
2022-10-15T23:53:23.401Z,14.50
2022-10-15T23:58:25.150Z,14.40
